Arab, MO

12:05 PM CST on February 07, 2016 (GMT -0600)
Dexterweather.com | | Change Station
CLOSE
Current Station
Personal Weather Station
Location: Dexter, MO
Elevation: 420 ft
Nearby Weather Stations

Elev 420 ft 36.79 °N, 89.97 °W | Updated 4 seconds ago

Clear
Clear
55.6 °F
Feels Like 55.6 °F
N
4.0
Wind Variable Wind from SW
Gusts 10.0 mph

Today
High -- | Low -- °F
--% Chance of Precip.
Yesterday
High -- | Low -- °F
Precip. -- in
Pressure 30.06 in
Visibility 10.0 miles
Clouds Clear
Dew Point 31 °F
Humidity 39%
Rainfall 0.00 in
Snow Depth Not available.
6:58 AM 5:31 PM
Waning Crescent, 1% visible
METAR KPOF 071753Z AUTO 22015G22KT 10SM CLR 12/M01 A3004 RMK AO2 SLP177 T01221006 10122 21006 58027
Pressure 30.06 in
Visibility 10.0 miles
Clouds Clear
Dew Point 31 °F
Humidity 39%
Rainfall 0.00 in
Snow Depth Not available.
6:58 AM 5:31 PM
Waning Crescent, 1% visible
METAR KPOF 071753Z AUTO 22015G22KT 10SM CLR 12/M01 A3004 RMK AO2 SLP177 T01221006 10122 21006 58027

10-Day Weather Forecast

Almanac

Astronomy

Feb. 07, 2016 Rise Set
Actual Time
Civil Twilight
Nautical Twilight
Astronomical Twilight
Moon
Length of Visible Light
Length of Day
Tomorrow will be .
, % of the Moon is Illuminated

Today's Extremes

State Highs State Lows

Community

WunderPhotos

Upload Photos

1,891,263 photos uploaded!

WunderBlog® & News

Nearby

Air Quality

  Air Quality AQ Index Pollutant
Not available.

Snow Depth

Station Depth Elevation

Earthquake Activity

City Distance Mag. Time & Date
Minimum magnitude displayed is 2.5.

Coastal Water Temperatures

Place Temperature

Stations

Nearby Weather Stations

Station Location Temp. Windchill Dew Point Humidity Wind Precip. Elev Updated Type
                   

Watches & Warnings

There are currently no watches in effect.